createdAt,value
2017-10-10T14:27:26.671Z,0.11
2017-10-10T14:28:26.698Z,0.15
2017-10-10T14:29:26.719Z,0.13
2017-10-10T14:30:26.747Z,0.19
2017-10-10T14:31:26.768Z,0.16
2017-10-10T14:32:26.794Z,0.13
2017-10-10T14:33:26.816Z,0.19
2017-10-10T14:34:26.841Z,0.19
2017-10-10T14:35:26.870Z,0.13
2017-10-10T14:36:26.888Z,0.15
2017-10-10T14:37:26.914Z,0.30
2017-10-10T14:38:26.937Z,0.27
2017-10-10T14:39:26.962Z,0.26
2017-10-10T14:40:26.986Z,0.29
2017-10-10T14:41:27.010Z,0.26
2017-10-10T14:42:27.035Z,0.30
2017-10-10T14:43:27.059Z,0.24
2017-10-10T14:44:27.083Z,0.24
2017-10-10T14:45:27.108Z,0.27
2017-10-10T14:46:27.138Z,0.23
2017-10-10T14:47:27.156Z,0.24
2017-10-10T14:48:27.182Z,0.24
2017-10-10T14:49:27.206Z,0.19
2017-10-10T14:50:27.230Z,0.20
2017-10-10T14:51:27.253Z,0.11
2017-10-10T14:52:27.298Z,0.24
2017-10-10T14:53:27.303Z,0.15
2017-10-10T14:54:27.326Z,0.24
2017-10-10T14:55:27.351Z,0.24
2017-10-10T14:56:27.377Z,0.15
2017-10-10T14:57:27.400Z,0.16
2017-10-10T14:58:27.425Z,0.23
2017-10-10T14:59:27.448Z,0.19
2017-10-10T15:00:27.473Z,0.12
2017-10-10T15:01:27.496Z,0.19
2017-10-10T15:02:27.522Z,0.12
2017-10-10T15:03:27.545Z,0.11
2017-10-10T15:04:27.568Z,0.09
2017-10-10T15:05:27.593Z,0.06
2017-10-10T15:06:27.617Z,0.06
2017-10-10T15:09:27.689Z,-0.02
2017-10-10T15:10:27.713Z,0.01
2017-10-10T15:11:27.737Z,0.00
2017-10-10T15:12:27.762Z,0.02
2017-10-10T15:13:27.786Z,0.01
2017-10-10T15:14:27.810Z,-0.05
2017-10-10T15:15:27.835Z,-0.02
2017-10-10T15:16:27.857Z,-0.06
2017-10-10T15:17:27.880Z,0.05
2017-10-10T15:18:27.910Z,-0.02
2017-10-10T15:19:27.928Z,-0.02
2017-10-10T15:20:27.952Z,0.02
2017-10-10T15:21:27.977Z,0.02
2017-10-10T15:22:28.001Z,0.02
2017-10-10T15:23:28.024Z,0.01
2017-10-10T15:24:28.048Z,0.05
2017-10-10T15:25:28.072Z,0.02
2017-10-10T15:26:28.097Z,-0.02
2017-10-10T15:27:28.119Z,-0.07
2017-10-10T15:28:28.143Z,-0.12
2017-10-10T15:29:28.166Z,-0.10
2017-10-10T15:30:28.198Z,0.00
2017-10-10T15:31:28.214Z,0.00
2017-10-10T15:32:28.238Z,-0.07
2017-10-10T15:33:28.262Z,-0.03
2017-10-10T15:34:28.286Z,0.01
2017-10-10T15:35:28.308Z,-0.02
2017-10-10T15:36:28.332Z,-0.09
2017-10-10T15:37:28.356Z,-0.03
2017-10-10T15:38:28.379Z,-0.10
2017-10-10T15:39:28.403Z,-0.09
2017-10-10T15:40:28.426Z,-0.07
2017-10-10T15:41:28.451Z,-0.06
2017-10-10T15:42:28.474Z,-0.09
2017-10-10T15:43:28.495Z,-0.05
2017-10-10T15:44:28.520Z,-0.13
2017-10-10T15:45:28.544Z,-0.13
2017-10-10T15:46:28.567Z,-0.10
2017-10-10T15:47:28.590Z,-0.07
2017-10-10T15:48:28.613Z,-0.06
2017-10-10T15:49:28.636Z,-0.09
2017-10-10T15:50:28.660Z,-0.07
2017-10-10T15:51:28.683Z,-0.06
2017-10-10T15:52:28.706Z,-0.09
2017-10-10T15:53:28.729Z,-0.10
2017-10-10T15:54:28.753Z,-0.10
2017-10-10T15:55:28.775Z,-0.09
2017-10-10T15:56:28.799Z,-0.13
2017-10-10T15:57:28.822Z,-0.07
2017-10-10T15:58:28.866Z,-0.07
2017-10-10T15:59:28.868Z,-0.07
2017-10-10T16:00:28.893Z,-0.10
2017-10-10T16:01:28.914Z,-0.13
2017-10-10T16:02:28.937Z,-0.12
2017-10-10T16:03:28.968Z,-0.09
2017-10-10T16:04:28.982Z,-0.10
2017-10-10T16:05:29.006Z,-0.07
2017-10-10T16:06:29.029Z,-0.05
2017-10-10T16:07:29.051Z,-0.06
2017-10-10T16:08:29.075Z,-0.09
2017-10-10T16:09:29.098Z,-0.02
2017-10-10T16:10:29.121Z,-0.09
2017-10-10T16:11:29.143Z,-0.09
2017-10-10T16:12:29.172Z,-0.12
2017-10-10T16:13:29.190Z,-0.12
2017-10-10T16:14:29.213Z,-0.10
2017-10-10T16:15:29.235Z,-0.09
2017-10-10T16:16:29.259Z,-0.12
2017-10-10T16:17:29.281Z,-0.09
2017-10-10T16:18:29.304Z,-0.09
2017-10-10T16:19:29.326Z,-0.12
2017-10-10T16:20:29.350Z,-0.10
2017-10-10T16:21:29.374Z,-0.07
2017-10-10T16:22:29.396Z,-0.05
2017-10-10T16:23:29.419Z,-0.06
2017-10-10T16:24:29.441Z,-0.05
2017-10-10T16:25:29.465Z,-0.07
2017-10-10T16:26:29.488Z,-0.09
2017-10-10T16:27:29.513Z,-0.02
2017-10-10T16:28:29.534Z,-0.06
2017-10-10T16:29:29.557Z,-0.06
2017-10-10T16:30:29.580Z,-0.13
2017-10-10T16:31:29.601Z,-0.06
2017-10-10T16:32:29.625Z,0.01
2017-10-10T16:33:29.647Z,-0.12
2017-10-10T16:34:29.671Z,-0.03
2017-10-10T16:35:29.693Z,-0.07
2017-10-10T16:36:29.715Z,-0.05
2017-10-10T16:37:29.738Z,-0.05
2017-10-10T16:38:29.762Z,-0.02
2017-10-10T16:39:29.790Z,-0.02
2017-10-10T16:40:29.807Z,-0.09
2017-10-10T16:41:29.830Z,-0.07
2017-10-10T16:42:29.854Z,-0.09
2017-10-10T16:43:29.875Z,-0.05
2017-10-10T16:44:29.899Z,-0.07
2017-10-10T16:45:29.925Z,-0.05
2017-10-10T16:46:29.945Z,-0.13
2017-10-10T16:47:29.967Z,-0.12
2017-10-10T16:48:29.991Z,-0.06
2017-10-10T16:49:30.014Z,-0.10
2017-10-10T16:50:30.036Z,-0.07
2017-10-10T16:51:30.058Z,-0.10
2017-10-10T16:52:30.081Z,-0.12
2017-10-10T16:53:30.104Z,-0.10
2017-10-10T16:54:30.127Z,-0.09
2017-10-10T16:55:30.148Z,-0.09
2017-10-10T16:56:30.187Z,-0.10
2017-10-10T16:57:30.195Z,-0.17
2017-10-10T16:58:30.219Z,-0.10
2017-10-10T16:59:30.241Z,-0.15
2017-10-10T17:00:30.263Z,-0.18
2017-10-10T17:01:30.287Z,-0.13
2017-10-10T17:02:30.310Z,-0.20
2017-10-10T17:03:30.341Z,-0.10
2017-10-10T17:04:30.355Z,-0.20
2017-10-10T17:05:30.378Z,-0.15
2017-10-10T17:06:30.405Z,-0.13
2017-10-10T17:07:30.424Z,-0.15
2017-10-10T17:08:30.446Z,-0.17
2017-10-10T17:09:30.470Z,-0.15
2017-10-10T17:10:30.492Z,-0.15
2017-10-10T17:11:30.515Z,-0.20
2017-10-10T17:12:30.538Z,-0.15
2017-10-10T17:13:30.561Z,-0.18
2017-10-10T17:14:30.585Z,-0.12
2017-10-10T17:15:30.605Z,-0.13
2017-10-10T17:16:30.629Z,-0.13
2017-10-10T17:17:30.652Z,-0.12
2017-10-10T17:18:30.678Z,-0.20
2017-10-10T17:19:30.697Z,-0.13
2017-10-10T17:20:30.720Z,-0.12
2017-10-10T17:21:30.743Z,-0.10
2017-10-10T17:22:30.768Z,-0.15
2017-10-10T17:23:30.788Z,-0.17
2017-10-10T17:24:30.811Z,-0.09
2017-10-10T17:25:30.835Z,-0.10
2017-10-10T17:26:30.857Z,-0.12
2017-10-10T17:27:30.880Z,-0.13
2017-10-10T17:28:30.902Z,-0.07
2017-10-10T17:29:30.925Z,-0.02
2017-10-10T17:30:30.955Z,-0.10
2017-10-10T17:31:30.971Z,-0.12
2017-10-10T17:32:30.994Z,-0.10
2017-10-10T17:33:31.023Z,-0.06
2017-10-10T17:34:31.039Z,-0.06
2017-10-10T17:35:31.062Z,-0.05
2017-10-10T17:36:31.084Z,-0.07
2017-10-10T17:37:31.108Z,-0.06
2017-10-10T17:38:31.133Z,-0.07
2017-10-10T17:39:31.153Z,-0.07
2017-10-10T17:40:31.175Z,-0.07
2017-10-10T17:41:31.198Z,-0.05
2017-10-10T17:42:31.222Z,-0.09
2017-10-10T17:43:31.243Z,-0.09
2017-10-10T17:44:31.268Z,-0.03
2017-10-10T17:45:31.289Z,-0.02
2017-10-10T17:46:31.312Z,-0.05
2017-10-10T17:47:31.339Z,-0.09
2017-10-10T17:48:31.357Z,-0.12
2017-10-10T17:49:31.381Z,-0.07
2017-10-10T17:50:31.405Z,-0.06
2017-10-10T17:51:31.430Z,-0.05
2017-10-10T17:52:31.448Z,-0.10
2017-10-10T17:53:31.472Z,-0.10
2017-10-10T17:54:31.495Z,-0.07
2017-10-10T17:55:31.517Z,-0.09
2017-10-10T17:56:31.539Z,-0.07
2017-10-10T17:57:31.562Z,-0.05
2017-10-10T17:58:31.584Z,-0.02
2017-10-10T17:59:31.608Z,-0.09
2017-10-10T18:00:31.630Z,-0.09
2017-10-10T18:01:31.653Z,-0.05
2017-10-10T18:02:31.676Z,-0.09
2017-10-10T18:03:31.698Z,-0.07
2017-10-10T18:04:31.720Z,-0.03
2017-10-10T18:05:31.744Z,-0.07
2017-10-10T18:06:31.767Z,-0.07
2017-10-10T18:07:31.789Z,-0.12
2017-10-10T18:08:31.812Z,-0.10
2017-10-10T18:09:31.836Z,-0.06
2017-10-10T18:10:31.858Z,-0.10
2017-10-10T18:11:31.879Z,-0.07
2017-10-10T18:12:31.903Z,-0.09
2017-10-10T18:13:31.925Z,-0.06
2017-10-10T18:14:31.948Z,-0.09
2017-10-10T18:15:31.971Z,-0.10
2017-10-10T18:16:31.993Z,-0.09
2017-10-10T18:17:32.017Z,-0.10
2017-10-10T18:18:32.040Z,-0.07
2017-10-10T18:19:32.060Z,-0.09
2017-10-10T18:20:32.085Z,-0.12
2017-10-10T18:21:32.107Z,-0.06
2017-10-10T18:22:32.130Z,-0.06
2017-10-10T18:23:32.152Z,-0.17
2017-10-10T18:24:32.175Z,-0.17
2017-10-10T18:25:32.197Z,-0.21
2017-10-10T18:26:32.221Z,-0.15
2017-10-10T18:27:32.243Z,-0.26
2017-10-10T18:28:32.266Z,-0.23
2017-10-10T18:29:32.303Z,-0.27
2017-10-10T18:30:32.318Z,-0.26
2017-10-10T18:31:32.334Z,-0.27
2017-10-10T18:32:32.357Z,-0.26
2017-10-10T18:33:32.379Z,-0.24
2017-10-10T18:34:32.401Z,-0.31
2017-10-10T18:35:32.424Z,-0.24
2017-10-10T18:36:32.455Z,-0.28
2017-10-10T18:37:32.469Z,-0.27
2017-10-10T18:38:32.493Z,-0.28
2017-10-10T18:39:32.515Z,-0.36
2017-10-10T18:40:32.553Z,-0.23
2017-10-10T18:41:32.560Z,-0.23
2017-10-10T18:42:32.583Z,-0.35
2017-10-10T18:43:32.606Z,-0.33
2017-10-10T18:44:32.628Z,-0.30
2017-10-10T18:45:32.651Z,-0.28
2017-10-10T18:46:32.673Z,-0.38
2017-10-10T18:47:32.696Z,-0.30
2017-10-10T18:48:32.719Z,-0.31
2017-10-10T18:49:32.741Z,-0.30
2017-10-10T18:50:32.764Z,-0.31
2017-10-10T18:51:32.790Z,-0.30
2017-10-10T18:52:32.809Z,-0.38
2017-10-10T18:53:32.832Z,-0.33
2017-10-10T18:54:32.854Z,-0.33
2017-10-10T18:55:32.877Z,-0.26
2017-10-10T18:56:32.898Z,-0.23
2017-10-10T18:57:32.923Z,-0.26
2017-10-10T18:58:32.945Z,-0.30
2017-10-10T18:59:32.968Z,-0.24
2017-10-10T19:00:32.990Z,-0.24
2017-10-10T19:01:33.014Z,-0.26
2017-10-10T19:02:33.035Z,-0.23
2017-10-10T19:03:33.059Z,-0.31
2017-10-10T19:04:33.081Z,-0.23
2017-10-10T19:05:33.108Z,-0.26
2017-10-10T19:06:33.126Z,-0.23
2017-10-10T19:07:33.149Z,-0.27
2017-10-10T19:08:33.171Z,-0.30
2017-10-10T19:09:33.194Z,-0.18
2017-10-10T19:10:33.220Z,-0.27
2017-10-10T19:11:33.238Z,-0.27
2017-10-10T19:12:33.262Z,-0.27
2017-10-10T19:13:33.284Z,-0.23
2017-10-10T19:14:33.307Z,-0.28
2017-10-10T19:15:33.329Z,-0.21
2017-10-10T19:16:33.352Z,-0.28
2017-10-10T19:17:33.390Z,-0.23
2017-10-10T19:18:33.399Z,-0.24
2017-10-10T19:19:33.420Z,-0.26
2017-10-10T19:20:33.444Z,-0.28
2017-10-10T19:21:33.465Z,-0.38
2017-10-10T19:22:33.491Z,-0.39
2017-10-10T19:23:33.511Z,-0.31
2017-10-10T19:24:33.548Z,-0.30
2017-10-10T19:25:33.570Z,-0.30
2017-10-10T19:26:33.579Z,-0.36
2017-10-10T19:27:33.615Z,-0.38
2017-10-10T19:28:33.623Z,-0.31
2017-10-10T19:29:33.661Z,-0.35
2017-10-10T19:30:33.684Z,-0.30
2017-10-10T19:31:33.708Z,-0.27
2017-10-10T19:32:33.715Z,-0.26
2017-10-10T19:33:33.752Z,-0.42
2017-10-10T19:34:33.760Z,-0.38
2017-10-10T19:35:33.781Z,-0.30
2017-10-10T19:36:33.819Z,-0.39
2017-10-10T19:37:33.830Z,-0.45
2017-10-10T19:38:33.851Z,-0.42
2017-10-10T19:39:33.891Z,-0.38
2017-10-10T19:40:33.895Z,-0.38
2017-10-10T19:41:33.923Z,-0.41
2017-10-10T19:42:33.955Z,-0.48
2017-10-10T19:43:33.963Z,-0.51
2017-10-10T19:44:33.999Z,-0.53
2017-10-10T19:45:34.008Z,-0.48
2017-10-10T19:46:34.047Z,-0.53
2017-10-10T19:47:34.052Z,-0.53
2017-10-10T19:48:34.076Z,-0.49
2017-10-10T19:49:34.100Z,-0.54
2017-10-10T19:50:34.137Z,-0.57
2017-10-10T19:51:34.144Z,-0.57
2017-10-10T19:52:34.167Z,-0.54
2017-10-10T19:53:34.190Z,-0.57
2017-10-10T19:54:34.213Z,-0.64
2017-10-10T19:55:34.234Z,-0.53
2017-10-10T19:56:34.257Z,-0.62
2017-10-10T19:57:34.283Z,-0.64
2017-10-10T19:58:34.303Z,-0.62
2017-10-10T19:59:34.324Z,-0.66
2017-10-10T20:00:34.362Z,-0.72
2017-10-10T20:01:34.369Z,-0.66
2017-10-10T20:02:34.398Z,-0.72
2017-10-10T20:03:34.429Z,-0.75
2017-10-10T20:04:34.437Z,-0.75
2017-10-10T20:05:34.460Z,-0.69
2017-10-10T20:06:34.497Z,-0.75
2017-10-10T20:07:34.505Z,-0.74
2017-10-10T20:08:34.527Z,-0.74
2017-10-10T20:09:34.550Z,-0.74
2017-10-10T20:10:34.572Z,-0.75
2017-10-10T20:11:34.594Z,-0.74
2017-10-10T20:12:34.625Z,-0.80
2017-10-10T20:13:34.639Z,-0.84
2017-10-10T20:14:34.663Z,-0.84
2017-10-10T20:15:34.685Z,-0.84
2017-10-10T20:16:34.721Z,-0.81
2017-10-10T20:17:34.729Z,-0.84
2017-10-10T20:18:34.751Z,-0.81
2017-10-10T20:19:34.773Z,-0.84
2017-10-10T20:20:34.796Z,-0.80
2017-10-10T20:21:34.833Z,-0.82
2017-10-10T20:22:34.842Z,-0.81
2017-10-10T20:23:34.863Z,-0.78
2017-10-10T20:24:34.899Z,-0.87
2017-10-10T20:25:34.907Z,-0.78
2017-10-10T20:26:34.932Z,-0.78
2017-10-10T20:27:34.953Z,-0.80
2017-10-10T20:28:34.976Z,-0.85
2017-10-10T20:29:34.998Z,-0.85
2017-10-10T20:30:35.020Z,-0.80
2017-10-10T20:31:35.042Z,-0.81
2017-10-10T20:32:35.065Z,-0.80
2017-10-10T20:33:35.093Z,-0.85
2017-10-10T20:34:35.110Z,-0.78
2017-10-10T20:35:35.132Z,-0.81
2017-10-10T20:36:35.153Z,-0.93
2017-10-10T20:37:35.176Z,-0.91
2017-10-10T20:38:35.198Z,-0.80
2017-10-10T20:39:35.220Z,-0.80
2017-10-10T20:40:35.243Z,-0.96
2017-10-10T20:41:35.266Z,-0.78
2017-10-10T20:42:35.288Z,-0.85
2017-10-10T20:43:35.310Z,-0.85
2017-10-10T20:44:35.333Z,-0.80
2017-10-10T20:45:35.355Z,-0.78
2017-10-10T20:46:35.378Z,-0.75
2017-10-10T20:47:35.399Z,-0.81
2017-10-10T20:48:35.421Z,-0.81
2017-10-10T20:49:35.444Z,-0.80
2017-10-10T20:50:35.467Z,-0.87
2017-10-10T20:51:35.505Z,-0.94
2017-10-10T20:52:35.517Z,-0.91
2017-10-10T20:53:35.533Z,-0.85
2017-10-10T20:54:35.556Z,-0.91
2017-10-10T20:55:35.576Z,-0.91
2017-10-10T20:56:35.600Z,-0.89
2017-10-10T20:57:35.622Z,-0.89
2017-10-10T20:58:35.644Z,-0.85
2017-10-10T20:59:35.666Z,-0.87
2017-10-10T21:00:35.689Z,-0.87
2017-10-10T21:01:35.711Z,-0.84
2017-10-10T21:02:35.734Z,-0.87
2017-10-10T21:03:35.755Z,-0.91
2017-10-10T21:04:35.778Z,-0.97
2017-10-10T21:05:35.902Z,-1.06
2017-10-10T21:06:35.822Z,-1.09
2017-10-10T21:07:35.843Z,-1.03
2017-10-10T21:08:35.866Z,-1.11
2017-10-10T21:09:35.888Z,-1.12
2017-10-10T21:10:35.912Z,-1.06
2017-10-10T21:11:35.933Z,-1.09
2017-10-10T21:12:35.955Z,-1.03
2017-10-10T21:13:35.980Z,-1.01
2017-10-10T21:14:35.999Z,-1.12
2017-10-10T21:15:36.022Z,-1.09
2017-10-10T21:16:36.044Z,-1.07
2017-10-10T21:17:36.068Z,-1.07
2017-10-10T21:18:36.088Z,-1.07
2017-10-10T21:19:36.110Z,-1.04
2017-10-10T21:20:36.132Z,-1.06
2017-10-10T21:21:36.155Z,-1.03
2017-10-10T21:22:36.178Z,-1.11
2017-10-10T21:23:36.198Z,-1.17
2017-10-10T21:24:36.220Z,-1.07
2017-10-10T21:25:36.243Z,-1.09
2017-10-10T21:26:36.265Z,-1.09
2017-10-10T21:27:36.287Z,-1.21
2017-10-10T21:28:36.310Z,-1.19
2017-10-10T21:29:36.331Z,-1.21
2017-10-10T21:30:36.354Z,-1.12
2017-10-10T21:31:36.376Z,-1.18
2017-10-10T21:32:36.398Z,-1.09
2017-10-10T21:33:36.431Z,-1.19
2017-10-10T21:34:36.443Z,-1.14
2017-10-10T21:35:36.464Z,-1.07
2017-10-10T21:36:36.486Z,-1.11
2017-10-10T21:37:36.509Z,-1.11
2017-10-10T21:38:36.532Z,-1.07
2017-10-10T21:39:36.554Z,-1.04
2017-10-10T21:40:36.575Z,-1.14
2017-10-10T21:41:36.597Z,-1.11
2017-10-10T21:42:36.620Z,-1.12
2017-10-10T21:43:36.641Z,-1.17
2017-10-10T21:44:36.662Z,-1.06
2017-10-10T21:45:36.686Z,-1.06
2017-10-10T21:46:36.708Z,-1.01
2017-10-10T21:47:36.731Z,-1.06
2017-10-10T21:48:36.751Z,-1.01
2017-10-10T21:49:36.774Z,-1.06
2017-10-10T21:50:36.796Z,-1.01
2017-10-10T21:51:36.817Z,-1.00
2017-10-10T21:52:36.840Z,-1.04
2017-10-10T21:53:36.868Z,-0.94
2017-10-10T21:54:36.884Z,-0.97
2017-10-10T21:55:36.906Z,-0.99
2017-10-10T21:56:36.927Z,-0.97
2017-10-10T21:57:36.951Z,-0.99
2017-10-10T21:58:36.973Z,-0.91
2017-10-10T21:59:36.993Z,-0.97
2017-10-10T22:00:37.018Z,-0.94
2017-10-10T22:01:37.045Z,-0.96
2017-10-10T22:02:37.062Z,-0.99
2017-10-10T22:03:37.083Z,-1.00
2017-10-10T22:04:37.112Z,-0.93
2017-10-10T22:05:37.127Z,-0.89
2017-10-10T22:06:37.150Z,-0.87
2017-10-10T22:07:37.198Z,-0.89
2017-10-10T22:08:37.193Z,-0.93
2017-10-10T22:09:37.216Z,-0.85
2017-10-10T22:10:37.238Z,-0.89
2017-10-10T22:11:37.260Z,-0.82
2017-10-10T22:12:37.284Z,-0.93
2017-10-10T22:13:37.305Z,-0.78
2017-10-10T22:14:37.327Z,-0.81
2017-10-10T22:15:37.349Z,-0.85
2017-10-10T22:16:37.370Z,-0.80
2017-10-10T22:17:37.393Z,-0.80
2017-10-10T22:18:37.416Z,-0.84
2017-10-10T22:19:37.444Z,-0.81
2017-10-10T22:20:37.460Z,-0.78
2017-10-10T22:21:37.482Z,-0.81
2017-10-10T22:22:37.511Z,-0.82
2017-10-10T22:23:37.525Z,-0.80
2017-10-10T22:24:37.549Z,-0.75
2017-10-10T22:25:37.571Z,-0.80
2017-10-10T22:26:37.597Z,-0.80
2017-10-10T22:27:37.618Z,-0.75
2017-10-10T22:28:37.638Z,-0.69
2017-10-10T22:29:37.659Z,-0.70
2017-10-10T22:30:37.682Z,-0.70
2017-10-10T22:31:37.703Z,-0.72
2017-10-10T22:32:37.727Z,-0.74
2017-10-10T22:33:37.748Z,-0.72
2017-10-10T22:34:37.771Z,-0.72
2017-10-10T22:35:37.792Z,-0.75
2017-10-10T22:36:37.816Z,-0.72
2017-10-10T22:37:37.839Z,-0.67
2017-10-10T22:38:37.861Z,-0.75
2017-10-10T22:39:37.882Z,-0.66
2017-10-10T22:40:37.904Z,-0.74
2017-10-10T22:41:37.928Z,-0.69
2017-10-10T22:42:37.950Z,-0.69
2017-10-10T22:43:37.971Z,-0.77
2017-10-10T22:44:37.994Z,-0.72
2017-10-10T22:45:38.016Z,-0.72
2017-10-10T22:46:38.039Z,-0.66
2017-10-10T22:47:38.061Z,-0.66
2017-10-10T22:48:38.083Z,-0.69
2017-10-10T22:49:38.106Z,-0.64
2017-10-10T22:50:38.129Z,-0.67
2017-10-10T22:51:38.151Z,-0.67
2017-10-10T22:52:38.174Z,-0.66
2017-10-10T22:53:38.195Z,-0.67
2017-10-10T22:54:38.224Z,-0.62
2017-10-10T22:55:38.239Z,-0.59
2017-10-10T22:56:38.263Z,-0.64
2017-10-10T22:57:38.285Z,-0.59
2017-10-10T22:58:38.308Z,-0.54
2017-10-10T22:59:38.353Z,-0.64
2017-10-10T23:00:38.351Z,-0.60
2017-10-10T23:01:38.374Z,-0.59
2017-10-10T23:02:38.397Z,-0.59
2017-10-10T23:03:38.418Z,-0.60
2017-10-10T23:04:38.441Z,-0.57
2017-10-10T23:05:38.464Z,-0.51
2017-10-10T23:06:38.485Z,-0.54
2017-10-10T23:07:38.509Z,-0.56
2017-10-10T23:08:38.531Z,-0.54
2017-10-10T23:09:38.553Z,-0.51
2017-10-10T23:10:38.576Z,-0.49
2017-10-10T23:11:38.597Z,-0.53
2017-10-10T23:12:38.621Z,-0.54
2017-10-10T23:13:38.643Z,-0.54
2017-10-10T23:14:38.665Z,-0.56
2017-10-10T23:15:38.688Z,-0.57
2017-10-10T23:16:38.711Z,-0.56
2017-10-10T23:17:38.735Z,-0.51
2017-10-10T23:18:38.756Z,-0.53
2017-10-10T23:19:38.778Z,-0.45
2017-10-10T23:20:38.801Z,-0.57
2017-10-10T23:21:38.823Z,-0.41
2017-10-10T23:22:38.846Z,-0.41
2017-10-10T23:23:38.867Z,-0.45
2017-10-10T23:24:38.889Z,-0.45
2017-10-10T23:25:38.913Z,-0.49
2017-10-10T23:26:38.936Z,-0.51
2017-10-10T23:27:38.957Z,-0.49
2017-10-10T23:28:38.980Z,-0.44
2017-10-10T23:29:39.003Z,-0.45
2017-10-10T23:30:39.026Z,-0.42
2017-10-10T23:31:39.067Z,-0.36
2017-10-10T23:32:39.069Z,-0.38
2017-10-10T23:33:39.093Z,-0.33
2017-10-10T23:34:39.114Z,-0.28
2017-10-10T23:35:39.137Z,-0.33
2017-10-10T23:36:39.159Z,-0.35
2017-10-10T23:37:39.182Z,-0.38
2017-10-10T23:38:39.205Z,-0.36
2017-10-10T23:39:39.227Z,-0.31
2017-10-10T23:40:39.249Z,-0.39
2017-10-10T23:41:39.272Z,-0.41
2017-10-10T23:42:39.295Z,-0.35
2017-10-10T23:43:39.316Z,-0.35
2017-10-10T23:44:39.339Z,-0.35
2017-10-10T23:45:39.361Z,-0.23
2017-10-10T23:46:39.388Z,-0.33
2017-10-10T23:47:39.406Z,-0.24
2017-10-10T23:48:39.428Z,-0.23
2017-10-10T23:49:39.451Z,-0.10
2017-10-10T23:50:39.474Z,-0.27
2017-10-10T23:51:39.496Z,-0.26
2017-10-10T23:52:39.518Z,-0.15
2017-10-10T23:53:39.541Z,-0.13
2017-10-10T23:54:39.564Z,-0.12
2017-10-10T23:55:39.586Z,-0.17
2017-10-10T23:56:39.609Z,-0.20
2017-10-10T23:57:39.631Z,-0.17
2017-10-10T23:58:39.661Z,-0.10
2017-10-10T23:59:39.676Z,-0.13
